1D5 weather

Luther Airport
Chittenango, New York, United States

Public forecast

Using degrees Fahrenheit for public forecast. Weather courtesy of forecast.io.

Closest aviation weather report (METAR) to Luther Airport

Closest report is Syracuse Hancock International Airport, 12.5 nm (23.1 km) WNW. Retrieved 2019/10/18 14:54 UTC (33 minutes ago):

KSYR 181454Z 29013G20KT 10SM OVC027 08/04 A2993 RMK AO2 SLP133 T00780044 51018

Closest aviation forecast (TAF) to Luther Airport

Closest forecast is Syracuse Hancock International Airport, 12.5 nm (23.1 km) WNW. Retrieved 2019/10/18 12:22 UTC (3 hours ago):

TAF KSYR 181120Z 1812/1912 31007KT P6SM OVC025 FM190000 VRB03KT P6SM BKN045 FM191100 VRB02KT P6SM SCT070